Time;durP1;ratioP1;P1;durP2;ratioP2;P2;SDS_P1;SDS_P2;PMS_P1;PMS_P2;Temp;Humidity;BMP_temperature;BMP_pressure;BME280_temperature;BME280_humidity;BME280_pressure;Samples;Min_cycle;Max_cycle;Signal;HPM_P1;HPM_P2
2023/10/12 00:02:50;;;;;;;15.95;8.10;;;;;;;16.21;100.00;100642.91;6302392;28;20060;-80
2023/10/12 00:05:52;;;;;;;14.80;8.05;;;;;;;16.20;100.00;100653.59;6302528;28;20055;-80
2023/10/12 00:08:53;;;;;;;25.58;7.95;;;;;;;16.14;100.00;100643.50;6301397;28;20052;-81
2023/10/12 00:11:57;;;;;;;17.42;7.80;;;;;;;16.13;100.00;100650.59;6289065;28;20045;-79
2023/10/12 00:15:03;;;;;;;18.35;8.43;;;;;;;16.09;100.00;100650.97;6279190;28;20070;-80
2023/10/12 00:18:08;;;;;;;20.55;8.10;;;;;;;16.11;100.00;100652.50;6293408;28;20052;-81
2023/10/12 00:21:18;;;;;;;15.38;8.02;;;;;;;16.09;100.00;100658.91;6301979;28;20048;-81
2023/10/12 00:24:20;;;;;;;13.70;7.93;;;;;;;16.12;100.00;100674.56;6301772;28;20044;-81
2023/10/12 00:27:22;;;;;;;16.73;7.10;;;;;;;16.10;100.00;100666.75;6301916;28;20055;-80
2023/10/12 00:30:24;;;;;;;14.65;7.18;;;;;;;16.13;100.00;100670.97;6300789;28;20045;-80
2023/10/12 00:33:25;;;;;;;19.50;8.40;;;;;;;16.12;100.00;100667.44;6293799;28;20364;-80
2023/10/12 00:36:26;;;;;;;24.25;7.70;;;;;;;16.12;100.00;100666.59;6301718;28;20071;-80
2023/10/12 00:39:56;;;;;;;19.70;7.90;;;;;;;16.09;100.00;100666.88;6301420;28;20053;-81
2023/10/12 00:42:52;;;;;;;23.95;9.10;;;;;;;16.02;100.00;100674.44;6292854;28;20059;-81
2023/10/12 00:45:54;;;;;;;17.35;8.40;;;;;;;15.96;100.00;100696.13;6301977;28;20060;-80
2023/10/12 00:49:13;;;;;;;19.20;9.30;;;;;;;15.90;100.00;100721.31;6300903;28;20383;-80
2023/10/12 00:52:23;;;;;;;23.90;9.90;;;;;;;15.86;100.00;100708.41;6301190;28;20121;-80
2023/10/12 00:55:36;;;;;;;23.05;8.63;;;;;;;15.79;100.00;100694.75;6301164;28;20052;-80
2023/10/12 00:58:39;;;;;;;23.35;9.18;;;;;;;15.77;100.00;100686.09;6301154;28;20098;-81
2023/10/12 01:01:40;;;;;;;21.45;9.73;;;;;;;15.72;100.00;100693.56;6298069;28;20052;-81
2023/10/12 01:04:43;;;;;;;18.17;8.85;;;;;;;15.67;100.00;100711.59;6295203;28;20353;-80
2023/10/12 01:07:45;;;;;;;31.02;10.82;;;;;;;15.67;100.00;100709.78;6300629;28;20055;-79
2023/10/12 01:10:48;;;;;;;34.97;9.90;;;;;;;15.68;100.00;100703.53;6300523;28;20084;-80
2023/10/12 01:14:03;;;;;;;31.73;10.05;;;;;;;15.65;100.00;100701.09;6300582;28;20048;-80
2023/10/12 01:17:08;;;;;;;25.25;10.95;;;;;;;15.57;100.00;100698.13;6300725;28;20357;-81
2023/10/12 01:20:16;;;;;;;27.95;11.40;;;;;;;15.50;100.00;100701.38;6300306;28;20062;-80
2023/10/12 01:23:19;;;;;;;24.42;9.32;;;;;;;15.49;100.00;100703.19;6300820;28;20048;-81
2023/10/12 01:26:21;;;;;;;18.23;6.57;;;;;;;15.39;100.00;100718.06;6300537;28;20460;-79
2023/10/12 01:29:22;;;;;;;15.02;4.88;;;;;;;15.17;100.00;100724.94;6300240;28;20048;-80
2023/10/12 01:32:27;;;;;;;11.07;3.78;;;;;;;15.05;100.00;100727.63;6300063;28;20076;-80
2023/10/12 01:35:32;;;;;;;6.80;2.63;;;;;;;14.92;100.00;100733.81;6300440;28;20463;-80
2023/10/12 01:38:37;;;;;;;6.15;2.50;;;;;;;14.88;100.00;100729.69;6300278;28;20056;-82
2023/10/12 01:41:41;;;;;;;4.38;1.70;;;;;;;14.60;100.00;100719.38;6300066;28;20044;-83
2023/10/12 01:44:43;;;;;;;5.45;1.75;;;;;;;14.46;100.00;100723.81;6300338;28;20071;-82
2023/10/12 01:47:44;;;;;;;6.85;2.42;;;;;;;14.47;100.00;100727.28;6300177;28;20052;-81
2023/10/12 01:50:47;;;;;;;5.07;1.35;;;;;;;14.57;100.00;100733.66;6299870;28;20048;-82
2023/10/12 01:53:50;;;;;;;2.92;1.48;;;;;;;14.67;100.00;100726.78;6300077;28;20458;-79
2023/10/12 01:56:52;;;;;;;4.88;1.67;;;;;;;14.62;100.00;100730.69;6300225;28;20059;-81
2023/10/12 01:59:54;;;;;;;3.30;1.98;;;;;;;14.67;100.00;100728.56;6299668;28;20059;-81
2023/10/12 02:03:05;;;;;;;2.42;1.63;;;;;;;14.66;100.00;100716.28;6300243;28;20059;-82
2023/10/12 02:06:13;;;;;;;3.08;1.58;;;;;;;14.66;100.00;100721.56;6299998;28;20053;-81
2023/10/12 02:09:22;;;;;;;2.92;1.70;;;;;;;14.65;100.00;100731.31;6300600;28;20072;-82
2023/10/12 02:12:26;;;;;;;3.10;1.80;;;;;;;14.70;100.00;100731.84;6304590;28;20356;-82
2023/10/12 02:15:31;;;;;;;2.45;1.50;;;;;;;14.74;100.00;100736.91;6280196;28;20045;-81
2023/10/12 02:18:34;;;;;;;5.57;2.00;;;;;;;14.71;100.00;100732.69;6279920;28;20060;-80
2023/10/12 02:21:38;;;;;;;4.85;1.58;;;;;;;14.75;100.00;100730.66;6289814;28;20067;-80
2023/10/12 02:24:42;;;;;;;2.75;1.73;;;;;;;14.78;100.00;100741.88;6285870;28;20045;-79
2023/10/12 02:27:54;;;;;;;4.88;1.88;;;;;;;14.78;100.00;100746.34;6279470;28;20387;-79
2023/10/12 02:30:55;;;;;;;3.05;1.90;;;;;;;14.79;100.00;100743.56;6278555;28;20045;-80
2023/10/12 02:33:57;;;;;;;4.85;2.00;;;;;;;14.80;100.00;100755.84;6279728;28;20044;-80
2023/10/12 02:37:18;;;;;;;3.75;1.45;;;;;;;14.80;100.00;100752.34;6296162;28;20048;-81
2023/10/12 02:40:21;;;;;;;4.75;1.80;;;;;;;14.82;100.00;100761.03;6303116;28;20352;-80
2023/10/12 02:43:26;;;;;;;2.35;1.10;;;;;;;14.83;100.00;100768.84;6304043;28;20056;-82
2023/10/12 02:46:32;;;;;;;4.55;1.65;;;;;;;14.67;100.00;100794.69;6304355;28;20145;-81
2023/10/12 02:49:39;;;;;;;3.65;1.17;;;;;;;13.87;100.00;100799.25;6303834;28;20045;-80
2023/10/12 02:52:43;;;;;;;4.28;0.75;;;;;;;13.53;100.00;100821.72;6303833;28;20055;-80
2023/10/12 02:55:49;;;;;;;3.85;0.98;;;;;;;13.37;100.00;100822.69;6303817;28;20440;-81
2023/10/12 02:58:51;;;;;;;2.83;0.60;;;;;;;13.33;100.00;100831.75;6304038;28;20471;-81
2023/10/12 03:02:12;;;;;;;1.45;0.50;;;;;;;13.12;100.00;100833.06;6299859;28;20052;-81
2023/10/12 03:05:17;;;;;;;4.32;0.65;;;;;;;12.87;100.00;100836.41;6302372;28;20052;-79
2023/10/12 03:08:22;;;;;;;4.60;1.00;;;;;;;12.55;100.00;100831.28;6303671;28;20048;-79
2023/10/12 03:11:26;;;;;;;5.05;0.82;;;;;;;12.65;100.00;100839.50;6303788;28;20428;-80
2023/10/12 03:14:27;;;;;;;10.82;1.55;;;;;;;12.72;100.00;100837.31;6303159;28;20326;-81
2023/10/12 03:17:29;;;;;;;3.42;0.75;;;;;;;12.75;100.00;100851.16;6303741;28;20048;-80
2023/10/12 03:20:35;;;;;;;2.08;0.50;;;;;;;12.49;100.00;100854.50;6301894;28;20049;-79
2023/10/12 03:23:38;;;;;;;3.60;0.68;;;;;;;12.62;100.00;100851.06;6303555;28;20048;-79
2023/10/12 03:26:47;;;;;;;3.33;0.90;;;;;;;12.71;100.00;100844.38;6303256;28;20048;-79
2023/10/12 03:29:56;;;;;;;4.68;0.88;;;;;;;12.73;100.00;100844.31;6302495;28;20044;-80
2023/10/12 03:32:58;;;;;;;8.23;0.73;;;;;;;12.62;100.00;100852.84;6303280;28;20048;-81
2023/10/12 03:36:13;;;;;;;5.40;0.80;;;;;;;12.76;100.00;100847.56;6302992;28;20067;-81
2023/10/12 03:39:25;;;;;;;4.22;1.17;;;;;;;12.91;100.00;100853.72;6303372;28;20056;-80
2023/10/12 03:42:42;;;;;;;2.45;0.75;;;;;;;12.82;100.00;100855.13;6302914;28;20452;-79
2023/10/12 03:46:00;;;;;;;9.57;0.88;;;;;;;12.53;100.00;100867.41;6302983;28;20390;-79
2023/10/12 03:49:09;;;;;;;5.63;1.15;;;;;;;12.54;100.00;100871.78;6302715;28;20076;-81
2023/10/12 03:52:13;;;;;;;;;;;;;;;12.53;100.00;100864.78;6302899;28;20051;-79
2023/10/12 03:55:24;;;;;;;6.03;1.30;;;;;;;12.58;100.00;100859.25;6302791;28;19924;-81
2023/10/12 03:58:28;;;;;;;1.33;0.55;;;;;;;12.60;100.00;100852.94;6302558;28;20052;-81
2023/10/12 04:01:30;;;;;;;2.55;0.60;;;;;;;12.52;100.00;100843.78;6302392;28;20349;-81
2023/10/12 04:04:34;;;;;;;4.45;0.80;;;;;;;12.60;100.00;100852.09;6302307;28;20053;-81
2023/10/12 04:07:45;;;;;;;2.05;0.75;;;;;;;12.53;100.00;100841.06;6302817;28;20163;-80
2023/10/12 04:14:20;;;;;;;;;;;;;;;12.66;100.00;100817.44;6294075;28;20044;-80
2023/10/12 04:17:41;;;;;;;7.05;1.23;;;;;;;12.62;100.00;100856.31;6301865;28;20387;-81
2023/10/12 04:20:42;;;;;;;5.18;0.85;;;;;;;12.51;100.00;100858.78;6299356;28;20079;-80
2023/10/12 04:23:46;;;;;;;5.68;0.90;;;;;;;12.64;100.00;100833.38;6295873;28;20052;-80
2023/10/12 04:27:09;;;;;;;5.13;1.20;;;;;;;12.68;100.00;100834.88;6301747;28;20070;-81
2023/10/12 04:30:32;;;;;;;4.28;0.80;;;;;;;12.53;100.00;100862.16;6301225;28;20125;-78
2023/10/12 04:33:43;;;;;;;7.03;0.95;;;;;;;12.64;100.00;100850.97;6292927;28;20048;-77
2023/10/12 04:36:45;;;;;;;11.75;0.80;;;;;;;12.61;100.00;100846.72;6301664;28;20055;-78
2023/10/12 04:39:56;;;;;;;1.98;0.60;;;;;;;12.66;100.00;100842.03;6301170;28;20052;-78
2023/10/12 04:43:02;;;;;;;3.70;0.80;;;;;;;12.59;100.00;100845.97;6301706;28;20056;-79
2023/10/12 04:46:26;;;;;;;1.83;0.80;;;;;;;12.49;100.00;100857.16;6301471;28;20045;-79
2023/10/12 04:49:54;;;;;;;3.10;0.80;;;;;;;12.43;100.00;100871.56;6292901;28;20075;-78
2023/10/12 04:53:08;;;;;;;4.15;1.25;;;;;;;12.34;100.00;100861.53;6301024;28;20470;-78
2023/10/12 04:56:10;;;;;;;4.05;0.90;;;;;;;12.41;100.00;100871.66;6301226;28;20052;-78
2023/10/12 04:59:15;;;;;;;1.70;0.63;;;;;;;12.38;100.00;100874.47;6300860;28;20504;-78
2023/10/12 05:02:28;;;;;;;2.92;0.90;;;;;;;12.43;100.00;100871.56;6293709;28;20044;-78
2023/10/12 05:08:48;;;;;;;2.55;0.95;;;;;;;12.68;100.00;100879.72;6276209;28;20052;-80
2023/10/12 05:11:50;;;;;;;4.18;0.68;;;;;;;12.75;100.00;100874.06;6276125;28;20094;-80
2023/10/12 05:14:55;;;;;;;4.78;1.15;;;;;;;12.55;100.00;100883.16;6294237;28;20048;-80
2023/10/12 05:17:57;;;;;;;4.32;0.80;;;;;;;12.43;100.00;100898.75;6300548;28;20044;-79
2023/10/12 05:21:00;;;;;;;6.45;1.65;;;;;;;12.47;100.00;100901.22;6300663;28;20041;-79
2023/10/12 05:24:01;;;;;;;6.13;0.80;;;;;;;12.39;100.00;100915.69;6300551;28;20441;-79
2023/10/12 05:27:09;;;;;;;3.13;0.85;;;;;;;12.39;100.00;100902.50;6300780;28;20063;-79
2023/10/12 05:30:19;;;;;;;4.13;0.73;;;;;;;12.46;100.00;100888.97;6299945;28;20059;-79
2023/10/12 05:33:43;;;;;;;3.10;0.55;;;;;;;12.45;100.00;100914.50;6300459;28;20570;-79
2023/10/12 05:36:45;;;;;;;5.07;0.80;;;;;;;12.31;100.00;100909.16;6300469;28;20048;-78
2023/10/12 05:39:47;;;;;;;2.50;1.20;;;;;;;12.48;100.00;100905.53;6300203;28;20440;-78
2023/10/12 05:42:50;;;;;;;6.03;1.05;;;;;;;12.34;100.00;100933.56;6300209;28;20451;-78
2023/10/12 05:45:52;;;;;;;2.38;1.10;;;;;;;12.50;100.00;100930.88;6299814;28;20357;-78
2023/10/12 05:48:54;;;;;;;4.07;0.77;;;;;;;12.56;100.00;100927.03;6300023;28;20325;-78
2023/10/12 05:51:56;;;;;;;5.45;1.10;;;;;;;12.55;100.00;100920.91;6299961;28;20075;-78
2023/10/12 05:54:58;;;;;;;7.78;1.25;;;;;;;12.49;100.00;100939.75;6300056;28;20052;-78
2023/10/12 05:58:09;;;;;;;8.65;1.17;;;;;;;12.51;100.00;100942.28;6300345;28;20051;-78
2023/10/12 06:01:18;;;;;;;1.98;0.73;;;;;;;12.54;100.00;100945.59;6299930;28;20353;-78
2023/10/12 06:04:20;;;;;;;4.57;0.80;;;;;;;12.61;100.00;100951.34;6300395;28;20118;-78
2023/10/12 06:07:22;;;;;;;4.82;1.20;;;;;;;12.64;100.00;100945.91;6299954;28;20053;-79
2023/10/12 06:10:27;;;;;;;9.43;1.17;;;;;;;12.64;100.00;100946.75;6299898;28;20135;-78
2023/10/12 06:13:39;;;;;;;3.67;1.02;;;;;;;12.60;100.00;100945.22;6299933;28;20068;-79
2023/10/12 06:16:41;;;;;;;5.47;0.98;;;;;;;12.56;100.00;100959.53;6300155;28;20044;-79
2023/10/12 06:19:44;;;;;;;2.35;0.77;;;;;;;12.53;100.00;100958.84;6299900;28;20049;-79
2023/10/12 06:22:47;;;;;;;2.90;1.10;;;;;;;12.65;100.00;100968.69;6298239;28;20040;-78
2023/10/12 06:25:51;;;;;;;7.00;1.27;;;;;;;12.55;100.00;100965.75;6283926;28;20060;-81
2023/10/12 06:28:53;;;;;;;5.88;1.42;;;;;;;12.57;100.00;100969.13;6285352;28;20045;-79
2023/10/12 06:31:55;;;;;;;7.15;1.13;;;;;;;12.51;100.00;100984.47;6283518;28;20045;-81
2023/10/12 06:35:13;;;;;;;12.57;1.40;;;;;;;12.39;100.00;100984.22;6282825;28;20057;-82
2023/10/12 06:38:22;;;;;;;3.85;1.08;;;;;;;12.42;100.00;100993.75;6292373;28;20424;-81
2023/10/12 06:41:58;;;;;;;8.32;0.98;;;;;;;12.53;100.00;100999.22;6296653;28;20052;-82
2023/10/12 06:44:50;;;;;;;5.13;1.08;;;;;;;12.59;100.00;101001.53;6286183;28;20353;-81
2023/10/12 06:47:57;;;;;;;8.18;1.50;;;;;;;12.65;100.00;101005.59;6287929;28;20357;-81
2023/10/12 06:51:02;;;;;;;12.73;1.60;;;;;;;12.61;100.00;101009.34;6295524;28;20045;-81
2023/10/12 06:54:17;;;;;;;4.57;1.13;;;;;;;12.67;100.00;101020.41;6296628;28;20060;-81
2023/10/12 06:57:42;;;;;;;3.65;1.02;;;;;;;12.67;100.00;101019.53;6295951;28;20052;-81
2023/10/12 07:03:59;;;;;;;6.03;1.17;;;;;;;12.67;100.00;101030.06;6302184;28;20080;-82
2023/10/12 07:07:07;;;;;;;9.50;0.98;;;;;;;12.54;100.00;101035.22;6297304;28;20334;-81
2023/10/12 07:10:23;;;;;;;9.25;1.50;;;;;;;12.56;100.00;101033.34;6299727;28;20142;-81
2023/10/12 07:13:26;;;;;;;5.95;1.13;;;;;;;12.58;100.00;101046.41;6295944;28;20052;-81
2023/10/12 07:16:31;;;;;;;1.67;0.77;;;;;;;12.60;100.00;101045.41;6303812;28;20044;-81
2023/10/12 07:19:34;;;;;;;10.20;1.67;;;;;;;12.66;100.00;101046.84;6284957;28;20052;-82
2023/10/12 07:22:38;;;;;;;6.75;1.10;;;;;;;12.57;100.00;101042.94;6289464;28;20559;-80
2023/10/12 07:25:43;;;;;;;10.90;1.52;;;;;;;12.59;100.00;101045.50;6288874;28;20055;-79
2023/10/12 07:28:49;;;;;;;4.47;1.05;;;;;;;12.49;100.00;101057.50;6302850;28;20049;-79
2023/10/12 07:31:51;;;;;;;4.97;1.00;;;;;;;12.59;100.00;101056.06;6294083;28;20052;-79
2023/10/12 07:34:54;;;;;;;8.35;1.00;;;;;;;12.50;100.00;101062.69;6290296;28;20058;-79
2023/10/12 07:37:57;;;;;;;4.53;1.33;;;;;;;12.55;100.00;101068.56;6296713;28;20045;-80
2023/10/12 07:41:00;;;;;;;6.88;1.20;;;;;;;12.54;100.00;101066.84;6282388;28;20052;-80
2023/10/12 07:44:03;;;;;;;4.90;1.13;;;;;;;12.59;100.00;101069.25;6294321;28;20047;-79
2023/10/12 07:47:14;;;;;;;3.92;1.63;;;;;;;12.47;100.00;101078.66;6297962;28;20059;-79
2023/10/12 07:50:25;;;;;;;8.88;2.22;;;;;;;12.62;100.00;101079.59;6300301;28;20080;-77
2023/10/12 07:53:29;;;;;;;5.75;2.00;;;;;;;12.70;100.00;101082.66;6293256;28;20360;-78
2023/10/12 07:56:32;;;;;;;10.27;2.05;;;;;;;12.53;100.00;101095.94;6299372;28;20052;-77
2023/10/12 07:59:33;;;;;;;9.13;1.83;;;;;;;12.56;100.00;101091.34;6294540;28;20049;-77
2023/10/12 08:03:05;;;;;;;10.95;2.28;;;;;;;12.58;100.00;101093.88;6302541;28;20340;-78
2023/10/12 08:06:07;;;;;;;9.15;2.17;;;;;;;12.64;100.00;101091.75;6301976;28;20052;-77
2023/10/12 08:09:21;;;;;;;11.95;2.30;;;;;;;12.66;100.00;101094.31;6301932;28;20078;-77
2023/10/12 08:12:25;;;;;;;7.78;2.22;;;;;;;12.53;100.00;101096.78;6286915;28;20037;-78
2023/10/12 08:15:49;;;;;;;11.50;2.92;;;;;;;12.62;100.00;101100.69;6301602;28;20094;-77
2023/10/12 08:22:17;;;;;;;9.82;3.33;;;;;;;12.74;100.00;101113.19;6301887;28;20052;-78
2023/10/12 08:25:27;;;;;;;8.45;2.50;;;;;;;12.80;100.00;101115.47;6301529;28;20135;-78
2023/10/12 08:28:36;;;;;;;9.43;3.03;;;;;;;12.73;100.00;101110.66;6293188;28;20049;-78
2023/10/12 08:31:43;;;;;;;7.38;2.75;;;;;;;12.80;100.00;101107.56;6297481;28;20040;-78
2023/10/12 08:38:16;;;;;;;12.27;3.55;;;;;;;12.86;100.00;101127.47;6301154;28;20413;-78
2023/10/12 08:41:20;;;;;;;6.80;3.13;;;;;;;12.92;100.00;101125.31;6301360;28;20127;-78
2023/10/12 08:44:22;;;;;;;9.07;3.22;;;;;;;12.92;100.00;101127.13;6301233;28;20332;-79
2023/10/12 08:47:25;;;;;;;9.70;3.42;;;;;;;12.91;100.00;101126.28;6301030;28;20056;-78
2023/10/12 08:53:46;;;;;;;;;;;;;;;13.20;100.00;101134.28;6287025;28;20040;-76
2023/10/12 08:56:53;;;;;;;7.90;3.13;;;;;;;13.27;100.00;101145.41;6298629;28;19928;-79
2023/10/12 09:00:20;;;;;;;12.85;4.07;;;;;;;13.23;100.00;101143.88;6295599;28;20388;-80
2023/10/12 09:03:32;;;;;;;10.85;3.63;;;;;;;13.06;100.00;101148.28;6293636;28;20048;-81
2023/10/12 09:10:01;;;;;;;;;;;;;;;13.21;100.00;101147.38;6292197;28;20052;-78
2023/10/12 09:13:04;;;;;;;12.95;4.15;;;;;;;13.33;100.00;101152.94;6294242;28;19924;-80
2023/10/12 09:16:09;;;;;;;11.98;3.10;;;;;;;13.26;100.00;101156.88;6294227;28;20044;-80
2023/10/12 09:19:23;;;;;;;10.00;3.42;;;;;;;13.39;100.00;101153.41;6290233;28;20052;-79
2023/10/12 09:22:29;;;;;;;12.77;3.42;;;;;;;13.53;100.00;101144.69;6296275;28;20064;-80
2023/10/12 09:29:03;;;;;;;13.18;4.40;;;;;;;13.67;100.00;101162.34;6291499;28;20052;-80
2023/10/12 09:32:15;;;;;;;7.10;2.43;;;;;;;13.60;100.00;101161.03;6288113;28;20066;-80
2023/10/12 09:35:19;;;;;;;11.82;2.70;;;;;;;13.54;100.00;101167.53;6300783;28;20067;-78
2023/10/12 09:38:21;;;;;;;5.72;2.72;;;;;;;13.71;100.00;101170.00;6299942;28;20048;-77
2023/10/12 09:41:27;;;;;;;6.95;2.13;;;;;;;13.71;100.00;101179.72;6300315;28;20060;-78
2023/10/12 09:44:37;;;;;;;8.77;2.25;;;;;;;13.85;100.00;101173.63;6300364;28;20435;-79
2023/10/12 09:47:50;;;;;;;9.00;2.30;;;;;;;13.93;100.00;101166.91;6300391;28;20052;-79
2023/10/12 09:50:52;;;;;;;7.28;2.08;;;;;;;14.04;100.00;101163.66;6300019;28;20370;-77
2023/10/12 09:53:58;;;;;;;6.97;1.90;;;;;;;14.06;100.00;101164.38;6300243;28;20056;-79
2023/10/12 09:57:04;;;;;;;7.65;1.55;;;;;;;13.97;100.00;101167.59;6300141;28;20052;-79
2023/10/12 10:00:18;;;;;;;6.50;2.00;;;;;;;13.96;100.00;101160.63;6300077;28;20045;-77
2023/10/12 10:03:20;;;;;;;9.45;1.88;;;;;;;14.12;100.00;101152.59;6299235;28;20444;-76
2023/10/12 10:06:37;;;;;;;8.50;1.25;;;;;;;14.21;100.00;101152.00;6290718;28;20052;-79
2023/10/12 10:09:39;;;;;;;4.57;1.48;;;;;;;14.25;100.00;101145.59;6285677;28;20388;-78
2023/10/12 10:12:42;;;;;;;5.18;1.35;;;;;;;14.25;100.00;101153.53;6288427;28;20049;-77
2023/10/12 10:15:55;;;;;;;5.20;1.05;;;;;;;14.35;100.00;101152.03;6281514;28;20053;-78
2023/10/12 10:19:10;;;;;;;6.82;1.20;;;;;;;14.12;100.00;101156.06;6274920;28;20052;-78
2023/10/12 10:22:14;;;;;;;12.18;2.45;;;;;;;14.16;100.00;101152.31;6287121;28;20352;-78
2023/10/12 10:25:17;;;;;;;10.90;1.60;;;;;;;14.22;100.00;101153.75;6290883;28;20080;-78
2023/10/12 10:28:23;;;;;;;5.22;1.48;;;;;;;14.27;100.00;101164.88;6303980;23;20067;-72
2023/10/12 10:31:27;;;;;;;6.88;1.42;;;;;;;14.36;100.00;101163.47;6291224;28;20056;-72
2023/10/12 10:34:34;;;;;;;5.72;1.05;;;;;;;14.37;100.00;101162.50;6295867;28;20051;-71
2023/10/12 10:37:47;;;;;;;5.97;1.60;;;;;;;14.36;100.00;101166.09;6302754;28;20048;-71
2023/10/12 10:40:49;;;;;;;10.13;1.23;;;;;;;14.29;100.00;101168.25;6301137;28;20110;-72
2023/10/12 10:43:52;;;;;;;4.65;0.80;;;;;;;14.33;100.00;101161.84;6298250;28;20072;-72
2023/10/12 10:46:57;;;;;;;3.92;0.80;;;;;;;14.33;100.00;101166.28;6295393;28;20371;-71
2023/10/12 10:50:00;;;;;;;5.47;1.05;;;;;;;14.22;100.00;101164.31;6299795;28;20052;-74
2023/10/12 10:53:08;;;;;;;3.88;0.98;;;;;;;14.26;100.00;101165.81;6296686;28;20041;-72
2023/10/12 10:56:13;;;;;;;6.85;1.05;;;;;;;14.28;100.00;101168.38;6298526;28;20533;-72
2023/10/12 10:59:18;;;;;;;7.78;1.50;;;;;;;14.32;100.00;101161.94;6300116;28;20667;-72
2023/10/12 11:02:22;;;;;;;5.40;1.10;;;;;;;14.22;100.00;101161.66;6302110;28;20147;-72
2023/10/12 11:05:28;;;;;;;7.30;1.30;;;;;;;14.31;100.00;101168.19;6294525;28;20121;-71
2023/10/12 11:08:32;;;;;;;7.78;1.10;;;;;;;14.36;100.00;101169.59;6287641;28;20052;-72
2023/10/12 11:11:45;;;;;;;4.80;0.95;;;;;;;14.49;100.00;101166.19;6295740;28;20397;-72
2023/10/12 11:14:58;;;;;;;3.75;1.20;;;;;;;14.47;100.00;101169.75;6278527;28;20045;-71
2023/10/12 11:18:07;;;;;;;4.32;1.50;;;;;;;14.33;100.00;101167.13;6292088;28;20045;-72
2023/10/12 11:21:11;;;;;;;2.38;0.75;;;;;;;14.28;100.00;101161.28;6299241;28;20051;-71
2023/10/12 11:24:14;;;;;;;5.05;0.63;;;;;;;14.31;100.00;101161.09;6297850;28;20037;-72
2023/10/12 11:27:30;;;;;;;6.60;0.98;;;;;;;14.29;100.00;101159.47;6300248;28;20052;-72
2023/10/12 11:30:35;;;;;;;7.93;0.90;;;;;;;14.17;100.00;101169.00;6287049;28;20041;-72
2023/10/12 11:33:38;;;;;;;4.63;0.93;;;;;;;14.07;100.00;101171.38;6295713;28;20041;-72
2023/10/12 11:36:40;;;;;;;3.60;1.23;;;;;;;14.11;100.00;101158.81;6295526;28;20052;-71
2023/10/12 11:39:42;;;;;;;6.60;0.82;;;;;;;14.09;100.00;101166.84;6294065;28;20055;-72
2023/10/12 11:42:53;;;;;;;3.15;0.90;;;;;;;14.17;100.00;101166.38;6301516;28;20044;-72
2023/10/12 11:46:01;;;;;;;5.78;0.88;;;;;;;14.09;100.00;101179.22;6302959;28;20044;-72
2023/10/12 11:49:05;;;;;;;6.72;1.23;;;;;;;14.12;100.00;101168.44;6300227;28;20352;-75
2023/10/12 11:52:17;;;;;;;7.35;1.23;;;;;;;14.03;100.00;101163.72;6293608;28;20044;-72
2023/10/12 11:55:19;;;;;;;4.53;0.98;;;;;;;14.04;100.00;101153.06;6296857;28;20048;-71
2023/10/12 11:58:21;;;;;;;3.95;0.88;;;;;;;14.09;100.00;101156.28;6290430;28;20111;-72
2023/10/12 12:01:23;;;;;;;5.82;1.00;;;;;;;14.09;100.00;101153.63;6293790;28;20227;-72
2023/10/12 12:04:32;;;;;;;4.60;0.93;;;;;;;14.10;100.00;101155.34;6293702;28;20398;-73
2023/10/12 12:07:33;;;;;;;4.85;0.80;;;;;;;14.15;100.00;101147.13;6302185;28;20053;-72
2023/10/12 12:10:44;;;;;;;1.02;0.50;;;;;;;14.23;100.00;101136.09;6301696;28;20059;-72
2023/10/12 12:13:51;;;;;;;7.28;1.15;;;;;;;14.27;100.00;101137.59;6324485;28;20450;-72
2023/10/12 12:16:53;;;;;;;1.15;0.50;;;;;;;14.36;100.00;101137.84;6327055;28;20044;-74
2023/10/12 12:19:55;;;;;;;13.90;1.85;;;;;;;14.42;100.00;101140.09;6305504;28;20063;-72
2023/10/12 12:22:57;;;;;;;7.32;1.02;;;;;;;14.41;100.00;101142.84;6296287;28;20051;-73
2023/10/12 12:26:07;;;;;;;7.35;1.05;;;;;;;14.39;100.00;101145.56;6293468;28;20044;-74
2023/10/12 12:29:09;;;;;;;5.90;0.75;;;;;;;14.35;100.00;101144.09;6299820;28;20076;-71
2023/10/12 12:32:10;;;;;;;3.83;0.77;;;;;;;14.33;100.00;101142.47;6293048;28;20045;-72
2023/10/12 12:35:15;;;;;;;1.02;0.70;;;;;;;14.31;100.00;101142.59;6293490;28;20051;-72
2023/10/12 12:38:45;;;;;;;5.90;0.90;;;;;;;14.25;100.00;101135.03;6300544;28;20048;-71
2023/10/12 12:41:44;;;;;;;3.58;1.48;;;;;;;14.27;100.00;101140.22;6275918;28;20053;-72
2023/10/12 12:44:45;;;;;;;6.25;1.17;;;;;;;14.30;100.00;101140.03;6288428;28;20040;-71
2023/10/12 12:47:47;;;;;;;3.42;1.10;;;;;;;14.30;100.00;101142.66;6296603;28;20455;-72
2023/10/12 12:50:50;;;;;;;9.35;0.95;;;;;;;14.32;100.00;101146.09;6294213;28;20044;-71
2023/10/12 12:53:52;;;;;;;5.53;0.95;;;;;;;14.25;100.00;101147.41;6300812;28;20044;-72
2023/10/12 12:56:54;;;;;;;6.40;1.15;;;;;;;14.23;100.00;101138.72;6293315;28;20045;-72
2023/10/12 12:59:55;;;;;;;4.10;0.85;;;;;;;14.21;100.00;101137.00;6294794;28;20452;-72
2023/10/12 13:03:00;;;;;;;8.57;0.95;;;;;;;14.24;100.00;101135.97;6296635;28;20047;-72
2023/10/12 13:06:07;;;;;;;3.08;0.95;;;;;;;14.31;100.00;101133.81;6298233;28;20579;-73
2023/10/12 13:09:26;;;;;;;3.97;0.95;;;;;;;14.36;100.00;101137.84;6300432;28;20090;-72
2023/10/12 13:12:31;;;;;;;5.35;1.15;;;;;;;14.26;100.00;101133.22;6291755;28;20455;-73
2023/10/12 13:15:32;;;;;;;5.72;1.08;;;;;;;14.28;100.00;101139.28;6300572;28;20048;-72
2023/10/12 13:18:34;;;;;;;2.92;1.25;;;;;;;14.26;100.00;101139.38;6290272;28;20048;-71
2023/10/12 13:21:41;;;;;;;5.47;1.15;;;;;;;14.26;100.00;101138.50;6300011;28;20063;-72
2023/10/12 13:24:43;;;;;;;5.57;1.70;;;;;;;14.23;100.00;101134.28;6297689;28;20051;-72
2023/10/12 13:27:46;;;;;;;6.40;1.00;;;;;;;14.24;100.00;101143.91;6291902;28;20050;-72
2023/10/12 13:30:47;;;;;;;12.13;1.13;;;;;;;14.23;100.00;101133.44;6285761;28;20045;-72
2023/10/12 13:33:49;;;;;;;4.32;0.68;;;;;;;14.28;100.00;101132.19;6275374;28;20049;-73
2023/10/12 13:36:52;;;;;;;6.40;1.25;;;;;;;14.33;100.00;101132.75;6275339;28;20161;-72
2023/10/12 13:39:53;;;;;;;3.38;0.85;;;;;;;14.37;100.00;101128.97;6274954;28;20052;-72
2023/10/12 13:43:01;;;;;;;2.70;1.00;;;;;;;14.51;100.00;101119.34;6290777;28;20044;-72
2023/10/12 13:46:07;;;;;;;2.47;1.15;;;;;;;14.59;100.00;101122.38;6291711;28;20048;-72
2023/10/12 13:49:11;;;;;;;3.92;0.93;;;;;;;14.65;100.00;101121.97;6300216;28;20044;-72
2023/10/12 13:52:14;;;;;;;3.97;1.02;;;;;;;14.69;100.00;101115.53;6291585;28;20048;-72
2023/10/12 13:55:15;;;;;;;4.63;1.08;;;;;;;14.71;100.00;101122.41;6299932;28;20050;-72
2023/10/12 13:58:17;;;;;;;12.82;1.10;;;;;;;14.67;100.00;101114.75;6292226;28;20075;-72
2023/10/12 14:01:20;;;;;;;3.38;1.02;;;;;;;14.62;100.00;101114.22;6286492;28;20056;-72
2023/10/12 14:04:29;;;;;;;5.97;1.10;;;;;;;14.61;100.00;101110.72;6299225;28;20051;-74
2023/10/12 14:07:36;;;;;;;10.82;1.10;;;;;;;14.62;100.00;101115.06;6292995;28;20100;-72
2023/10/12 14:10:41;;;;;;;5.57;0.88;;;;;;;14.63;100.00;101102.69;6300962;28;20044;-72
2023/10/12 14:13:43;;;;;;;3.28;1.08;;;;;;;14.58;100.00;101092.41;6286871;28;20048;-72
2023/10/12 14:16:45;;;;;;;5.82;1.00;;;;;;;14.54;100.00;101096.22;6282058;28;20052;-72
2023/10/12 14:19:50;;;;;;;6.78;1.05;;;;;;;14.55;100.00;101099.69;6303233;28;20336;-73
2023/10/12 14:22:54;;;;;;;4.18;0.88;;;;;;;14.53;100.00;101099.78;6302833;28;20178;-72
2023/10/12 14:25:57;;;;;;;4.90;1.00;;;;;;;14.51;100.00;101099.03;6303139;28;20348;-72
2023/10/12 14:29:03;;;;;;;4.97;0.98;;;;;;;14.52;100.00;101099.88;6304366;28;20428;-72
2023/10/12 14:32:04;;;;;;;5.50;1.20;;;;;;;14.51;100.00;101093.75;6301474;28;20048;-72
2023/10/12 14:35:06;;;;;;;4.93;1.10;;;;;;;14.46;100.00;101094.00;6300226;28;20044;-71
2023/10/12 14:38:13;;;;;;;5.03;1.58;;;;;;;14.50;100.00;101094.72;6293749;28;20048;-71
2023/10/12 14:41:16;;;;;;;13.55;3.22;;;;;;;14.50;100.00;101092.06;6296573;28;20041;-71
2023/10/12 14:44:22;;;;;;;7.25;1.45;;;;;;;14.47;100.00;101094.84;6302805;28;20043;-72